Thunder radar more information blitzortung!


Löydät sääaseman tiedot myös:

European Weather Network

Finland Weather Exchange

Weather Underground

AWEKAS



Weather Underground säähistoriasivu

Päivittäin yhteenveto Helmikuu 7, 2017 Yksiköt:  Englantilaiset    Metriset   Molemmat
« Edellinen Päivä
Seuraava Päivä »
Päivittäin Viikoittain Kuukausittain Vuosittain Mukautettu
  Korkea: Matala: Keskiarvo:
Lämpötila: TemperatureC °F -19.6 °F -15.6 °F
Kastepiste: DewpointC °F -21.3 °F -17.1 °F
Kosteus: Humidity % 82 % 87 %
Tuulen nopeus: WindSpeedKMH mph 0.0 mph 0 mph
Tuulenpuuska: WindSpeedGustKMH mph - -
Tuuli:- - North
Ilmanpaine: PressurehPa in 1043.6 in -
Sade: 0.0 in    
Historical Graphs
 
 
Taulukkotiedot Helmikuu 7, 2017
Aika Lämpötila Kastepiste Ilmanpaine Tuuli Tuulen nopeus Tuulenpuuska Kosteus Sademäärä (tunneittain)
TemperatureC °F DewpointC °F PressurehPa in Calm     Humidity % HourlyPrecipMM in
00:00 -15.9 °F -17.5 °F 1043.6 in Calm     88 % 0.0 in
00:15 -16.2 °F -17.7 °F 1043.9 in Calm     88 % 0.0 in
00:30 -16.3 °F -17.8 °F 1043.9 in Calm     88 % 0.0 in
00:45 -16.4 °F -17.9 °F 1043.9 in Calm     88 % 0.0 in
01:00 -16.5 °F -18.0 °F 1044.2 in Calm     88 % 0.0 in
01:15 -16.6 °F -18.1 °F 1044.2 in Calm     88 % 0.0 in
01:30 -16.7 °F -18.2 °F 1044.2 in Calm     88 % 0.0 in
01:45 -16.8 °F -18.5 °F 1044.6 in Calm     87 % 0.0 in
02:00 -17.0 °F -18.5 °F 1044.6 in Calm     88 % 0.0 in
02:15 -17.1 °F -18.6 °F 1044.6 in Calm     88 % 0.0 in
02:30 -17.1 °F -18.6 °F 1044.6 in Calm     88 % 0.0 in
02:45 -17.2 °F -18.7 °F 1044.6 in Calm     88 % 0.0 in
03:00 -17.3 °F -18.8 °F 1044.9 in Calm     88 % 0.0 in
03:15 -17.5 °F -19.1 °F 1044.9 in Calm     87 % 0.0 in
03:30 -17.6 °F -19.3 °F 1044.9 in Calm     87 % 0.0 in
03:45 -17.7 °F -19.4 °F 1044.9 in Calm     87 % 0.0 in
04:00 -17.8 °F -19.4 °F 1044.9 in Calm     87 % 0.0 in
04:15 -17.9 °F -19.5 °F 1044.9 in Calm     87 % 0.0 in
04:30 -18.0 °F -19.6 °F 1044.9 in Calm     87 % 0.0 in
04:45 -18.2 °F -19.8 °F 1045.3 in Calm     87 % 0.0 in
05:00 -18.3 °F -19.9 °F 1045.3 in Calm     87 % 0.0 in
05:15 -18.4 °F -20.0 °F 1045.3 in Calm     87 % 0.0 in
05:30 -18.5 °F -20.1 °F 1045.3 in Calm     87 % 0.0 in
05:45 -18.6 °F -20.2 °F 1045.3 in Calm     87 % 0.0 in
06:00 -18.7 °F -20.3 °F 1045.3 in Calm     87 % 0.0 in
06:15 -18.8 °F -20.5 °F 1045.3 in Calm     87 % 0.0 in
06:30 -19.0 °F -20.8 °F 1045.6 in Calm     86 % 0.0 in
06:45 -19.1 °F -20.7 °F 1045.6 in Calm     87 % 0.0 in
07:00 -19.2 °F -20.8 °F 1045.6 in Calm     87 % 0.0 in
07:15 -19.1 °F -20.7 °F 1045.9 in Calm     87 % 0.0 in
07:30 -19.2 °F -21.0 °F 1045.9 in Calm     86 % 0.0 in
07:45 -19.3 °F -21.1 °F 1045.9 in Calm     86 % 0.0 in
08:00 -19.4 °F -21.0 °F 1045.9 in Calm     87 % 0.0 in
08:15 -19.4 °F -21.2 °F 1045.9 in Calm     86 % 0.0 in
08:30 -19.5 °F -21.2 °F 1046.3 in Calm     86 % 0.0 in
08:45 -19.6 °F -21.2 °F 1046.3 in Calm     87 % 0.0 in
09:00 -19.6 °F -21.3 °F 1046.3 in Calm     86 % 0.0 in
09:15 -19.4 °F -21.1 °F 1046.3 in Calm     87 % 0.0 in
09:30 -19.3 °F -20.9 °F 1046.3 in Calm     87 % 0.0 in
09:45 -19.2 °F -20.8 °F 1046.6 in Calm     87 % 0.0 in
10:00 -18.9 °F -20.4 °F 1046.6 in Calm     88 % 0.0 in
10:15 -18.4 °F -19.8 °F 1046.6 in Calm     89 % 0.0 in
10:30 -18.0 °F -19.4 °F 1046.6 in Calm     89 % 0.0 in
10:45 -17.4 °F -18.7 °F 1046.6 in Calm     90 % 0.0 in
11:00 -16.8 °F -18.0 °F 1046.6 in Calm     91 % 0.0 in
11:15 -16.2 °F -17.3 °F 1047.0 in Calm     91 % 0.0 in
11:30 -15.6 °F -16.7 °F 1047.0 in Calm     91 % 0.0 in
11:45 -15.0 °F -16.1 °F 1047.0 in Calm     91 % 0.0 in
12:00 -14.5 °F -15.8 °F 1047.0 in Calm     90 % 0.0 in
12:15 -13.9 °F -15.2 °F 1047.0 in Calm     90 % 0.0 in
12:30 -13.4 °F -14.8 °F 1047.0 in Calm     90 % 0.0 in
12:45 -13.0 °F -14.3 °F 1047.0 in Calm     90 % 0.0 in
13:00 -12.7 °F -14.1 °F 1047.0 in Calm     89 % 0.0 in
13:15 -12.3 °F -13.7 °F 1047.0 in Calm     89 % 0.0 in
13:30 -11.8 °F -13.2 °F 1047.0 in Calm     89 % 0.0 in
13:45 -11.3 °F -12.7 °F 1047.0 in Calm     89 % 0.0 in
14:00 -10.7 °F -12.1 °F 1047.0 in Calm     89 % 0.0 in
14:15 -10.6 °F -12.2 °F 1047.0 in Calm     88 % 0.0 in
14:30 -10.4 °F -12.0 °F 1047.0 in Calm     88 % 0.0 in
14:45 -10.0 °F -11.6 °F 1047.0 in Calm     88 % 0.0 in
15:00 -9.6 °F -11.4 °F 1047.0 in Calm     87 % 0.0 in
15:15 -9.3 °F -11.2 °F 1047.0 in Calm     86 % 0.0 in
15:30 -9.3 °F -11.4 °F 1047.0 in Calm     85 % 0.0 in
15:45 -9.3 °F -11.5 °F 1047.3 in Calm     84 % 0.0 in
16:00 -9.6 °F -12.0 °F 1047.3 in Calm     83 % 0.0 in
16:15 -9.9 °F -12.4 °F 1047.3 in Calm     82 % 0.0 in
16:30 -10.5 °F -12.8 °F 1047.3 in Calm     83 % 0.0 in
16:45 -11.3 °F -13.4 °F 1047.3 in Calm     85 % 0.0 in
17:00 -11.9 °F -13.8 °F 1047.3 in Calm     86 % 0.0 in
17:15 -12.6 °F -14.3 °F 1047.3 in Calm     87 % 0.0 in
17:30 -13.1 °F -14.8 °F 1047.6 in Calm     87 % 0.0 in
17:45 -13.5 °F -15.1 °F 1047.6 in Calm     88 % 0.0 in
18:00 -13.8 °F -15.3 °F 1047.6 in Calm     88 % 0.0 in
18:15 -14.1 °F -15.7 °F 1047.6 in Calm     88 % 0.0 in
18:30 -14.3 °F -15.7 °F 1047.6 in Calm     89 % 0.0 in
18:45 -14.4 °F -15.8 °F 1048.0 in Calm     89 % 0.0 in
19:00 -14.6 °F -16.0 °F 1048.0 in Calm     89 % 0.0 in
19:15 -14.8 °F -16.3 °F 1048.0 in Calm     88 % 0.0 in
19:30 -14.9 °F -16.4 °F 1048.0 in Calm     89 % 0.0 in
19:45 -15.1 °F -16.5 °F 1048.0 in Calm     89 % 0.0 in
20:00 -15.2 °F -16.6 °F 1048.0 in Calm     89 % 0.0 in
20:15 -15.4 °F -17.0 °F 1048.0 in Calm     88 % 0.0 in
20:30 -15.6 °F -17.0 °F 1048.0 in Calm     89 % 0.0 in
20:45 -15.7 °F -17.3 °F 1048.0 in Calm     88 % 0.0 in
21:00 -15.8 °F -17.4 °F 1048.0 in Calm     88 % 0.0 in
21:15 -16.0 °F -17.5 °F 1048.0 in Calm     88 % 0.0 in
21:30 -16.1 °F -17.6 °F 1048.0 in Calm     88 % 0.0 in
21:45 -16.3 °F -17.8 °F 1048.0 in Calm     88 % 0.0 in
22:00 -16.4 °F -18.0 °F 1048.3 in Calm     88 % 0.0 in
22:15 -16.5 °F -18.0 °F 1048.0 in Calm     88 % 0.0 in
22:30 -16.6 °F -18.1 °F 1048.0 in Calm     88 % 0.0 in
22:45 -16.7 °F -18.2 °F 1048.0 in Calm     88 % 0.0 in
23:00 -16.7 °F -18.2 °F 1048.3 in Calm     88 % 0.0 in
23:15 -16.7 °F -18.2 °F 1048.3 in Calm     88 % 0.0 in
23:30 -16.6 °F -18.0 °F 1048.3 in Calm     89 % 0.0 in
23:45 -16.2 °F -17.5 °F 1048.3 in Calm     90 % 0.0 in
Esan sääasema
Terveisin Weather Underground - 2.75 mb

Alkuperäinen skripti  Jim McMurry - jmcmurry@mwt.net Sovitettu myös templatelle  Wim van der Kuil - Leuven-Template.eu

Laitteet joita käytämme:

Sääasema
Davis VP2

Sääasemaohjelma
Cumulus

Sääaseman tietokone
Asus EeePC

Palveluntarjoaja
Suncomet

Davis VP2

Cumulus

Asus EeePC

Suncomet